This is the latest recevied weather packets stored in our database for station/object N8WJW. If no packets are shown the sender has not sent any weather packets the latest 10 day(s).
| Time | Temp. | Humidity | Pressure | Rain* | Wind** | Luminosity | Snow |
|---|---|---|---|---|---|---|---|
| 1777478695 | 12.78° C | 98% | 1010.3 hPa | 0 mm | - | 29 W/m² | - |
| 1777478391 | 13.33° C | 97% | 1010.4 hPa | 0 mm | - | 26 W/m² | - |
| 1777478088 | 12.78° C | 97% | 1010.3 hPa | 0 mm | - | 53 W/m² | - |
| 1777477784 | 13.33° C | 98% | 1010.3 hPa | 0 mm | - | 99 W/m² | - |
| 1777477480 | 13.33° C | 98% | 1010.2 hPa | 0 mm | - | 167 W/m² | - |
| 1777477177 | 12.78° C | 99% | 1010 hPa | 0 mm | - | 285 W/m² | - |
| 1777476874 | 12.78° C | 99% | 1010.5 hPa | 0 mm | - | 183 W/m² | - |
| 1777476572 | 12.78° C | 99% | 1010.6 hPa | 0 mm | - | 170 W/m² | - |
| 1777476268 | 13.33° C | 99% | 1010.4 hPa | 0 mm | - | 253 W/m² | - |
| 1777475963 | 12.22° C | 99% | 1011 hPa | 0 mm | - | 241 W/m² | - |
| 1777475660 | 12.22° C | 99% | 1011 hPa | 0 mm | - | 139 W/m² | - |
| 1777475356 | 12.22° C | 99% | 1010.8 hPa | 0 mm | - | 201 W/m² | - |
| 1777475051 | 12.22° C | 99% | 1010.6 hPa | 0 mm | - | 311 W/m² | - |
| 1777474748 | 12.22° C | 99% | 1010.8 hPa | 0 mm | - | 292 W/m² | - |
| 1777474444 | 11.67° C | 99% | 1011.1 hPa | 0 mm | - | 183 W/m² | - |
| 1777474141 | 12.22° C | 99% | 1011.2 hPa | 0 mm | - | 161 W/m² | - |
| 1777473839 | 11.67° C | 99% | 1011.4 hPa | 0 mm | - | 76 W/m² | - |
| 1777473535 | 11.67° C | 99% | 1011.3 hPa | 0 mm | - | 109 W/m² | - |
| 1777473231 | 11.67° C | 99% | 1011.5 hPa | 0 mm | - | 80 W/m² | - |
| 1777472928 | 11.67° C | 99% | 1011.5 hPa | 0 mm | - | 34 W/m² | - |
| 1777472624 | 11.67° C | 99% | 1011.8 hPa | 0 mm | - | 11 W/m² | - |
| 1777472321 | 11.67° C | 99% | 1011.7 hPa | 0 mm | - | 14 W/m² | - |
| 1777472018 | 11.67° C | 99% | 1011.6 hPa | 0 mm | - | 24 W/m² | - |
| 1777471714 | 11.67° C | 99% | 1011.5 hPa | 0 mm | - | 80 W/m² | - |
| 1777471410 | 11.67° C | 99% | 1011.7 hPa | 0 mm | - | 38 W/m² | - |
* Rain latest hour (hover to see other rain measurements)
** Current wind speed in m/s (hover to see current wind gust speed)